createdAt,value
2022-11-16T00:01:48.615Z,99740.81
2022-11-16T00:04:15.184Z,99744.56
2022-11-16T00:06:41.709Z,99738.13
2022-11-16T00:09:23.248Z,99731.84
2022-11-16T00:11:52.077Z,99733.72
2022-11-16T00:14:24.685Z,99736.44
2022-11-16T00:16:51.553Z,99735.75
2022-11-16T00:19:18.438Z,99729.50
2022-11-16T00:21:45.004Z,99728.47
2022-11-16T00:26:57.155Z,99730.50
2022-11-16T00:29:25.422Z,99728.13
2022-11-16T00:31:52.689Z,99730.00
2022-11-16T00:34:25.110Z,99730.19
2022-11-16T00:36:51.962Z,99728.31
2022-11-16T00:39:19.366Z,99726.44
2022-11-16T00:41:46.676Z,99725.59
2022-11-16T00:44:13.447Z,99726.44
2022-11-16T00:46:41.061Z,99734.56
2022-11-16T00:49:08.726Z,99741.84
2022-11-16T00:51:36.464Z,99736.44
2022-11-16T00:54:04.459Z,99734.75
2022-11-16T00:56:35.420Z,99734.75
2022-11-16T00:59:01.976Z,99738.13
2022-11-16T01:01:28.583Z,99737.97
2022-11-16T01:03:55.219Z,99743.38
2022-11-16T01:06:23.465Z,99741.69
2022-11-16T01:08:50.287Z,99751.66
2022-11-16T01:11:36.766Z,99750.81
2022-11-16T01:14:06.617Z,99748.97
2022-11-16T01:16:38.290Z,99744.56
2022-11-16T01:19:05.216Z,99738.97
2022-11-16T01:21:32.774Z,99732.38
2022-11-16T01:23:59.324Z,99716.78
2022-11-16T01:26:25.947Z,99714.75
2022-11-16T01:28:53.094Z,99718.31
2022-11-16T01:31:20.555Z,99723.72
2022-11-16T01:33:49.245Z,99722.88
2022-11-16T01:36:25.547Z,99714.75
2022-11-16T01:38:53.803Z,99714.94
2022-11-16T01:41:27.264Z,99715.09
2022-11-16T01:44:03.561Z,99705.28
2022-11-16T01:46:36.753Z,99699.03
2022-11-16T01:49:16.326Z,99696.31
2022-11-16T01:51:49.092Z,99684.47
2022-11-16T01:54:16.178Z,99683.81
2022-11-16T01:56:55.218Z,99692.78
2022-11-16T01:59:36.254Z,99689.22
2022-11-16T02:02:04.263Z,99681.25
2022-11-16T02:04:36.255Z,99691.06
2022-11-16T02:08:01.327Z,99683.31
2022-11-16T02:10:40.635Z,99679.56
2022-11-16T02:13:21.789Z,99685.16
2022-11-16T02:15:57.260Z,99679.75
2022-11-16T02:18:52.905Z,99679.56
2022-11-16T02:21:31.476Z,99672.47
2022-11-16T02:24:35.517Z,99672.47
2022-11-16T02:27:22.088Z,99661.63
2022-11-16T02:29:54.603Z,99672.47
2022-11-16T02:32:26.351Z,99670.59
2022-11-16T02:35:04.902Z,99663.31
2022-11-16T02:37:35.822Z,99659.59
2022-11-16T02:40:07.840Z,99664.00
2022-11-16T02:42:39.745Z,99655.88
2022-11-16T02:45:10.074Z,99659.59
2022-11-16T02:47:38.543Z,99661.28
2022-11-16T02:50:11.878Z,99658.41
2022-11-16T02:52:38.848Z,99656.38
2022-11-16T02:55:09.995Z,99659.94
2022-11-16T02:57:51.524Z,99660.59
2022-11-16T03:00:22.881Z,99661.44
2022-11-16T03:03:12.824Z,99660.59
2022-11-16T03:05:54.057Z,99668.38
2022-11-16T03:08:32.447Z,99663.97
2022-11-16T03:11:26.167Z,99659.41
2022-11-16T03:14:02.482Z,99658.75
2022-11-16T03:16:40.900Z,99655.19
2022-11-16T03:19:11.909Z,99662.78
2022-11-16T03:21:51.947Z,99663.28
2022-11-16T03:24:23.396Z,99658.38
2022-11-16T03:27:01.771Z,99665.47
2022-11-16T03:29:33.963Z,99656.69
2022-11-16T03:32:20.330Z,99675.16
2022-11-16T03:35:24.573Z,99675.81
2022-11-16T03:37:54.259Z,99660.06
2022-11-16T03:40:24.497Z,99673.78
2022-11-16T03:42:52.326Z,99671.91
2022-11-16T03:45:24.138Z,99681.72
2022-11-16T03:47:52.684Z,99686.97
2022-11-16T03:50:20.383Z,99682.41
2022-11-16T03:52:47.126Z,99690.34
2022-11-16T03:55:19.233Z,99696.28
2022-11-16T03:57:45.708Z,99701.53
2022-11-16T04:00:13.652Z,99696.09
2022-11-16T04:02:40.136Z,99698.97
2022-11-16T04:05:31.701Z,99694.75
2022-11-16T04:08:17.549Z,99698.47
2022-11-16T04:11:02.793Z,99695.59
2022-11-16T04:13:52.840Z,99709.16
2022-11-16T04:16:38.469Z,99715.41
2022-11-16T04:19:27.637Z,99712.69
2022-11-16T04:22:23.807Z,99711.84
2022-11-16T04:24:55.888Z,99706.59
2022-11-16T04:27:46.892Z,99709.50
2022-11-16T04:30:14.256Z,99716.94
2022-11-16T04:32:59.941Z,99710.00
2022-11-16T04:35:33.442Z,99712.03
2022-11-16T04:37:59.998Z,99721.53
2022-11-16T04:40:32.964Z,99723.56
2022-11-16T04:43:03.235Z,99727.47
2022-11-16T04:45:56.360Z,99735.06
2022-11-16T04:48:26.899Z,99739.81
2022-11-16T04:50:54.478Z,99737.28
2022-11-16T04:53:22.492Z,99737.44
2022-11-16T04:56:00.971Z,99745.91
2022-11-16T04:58:28.911Z,99740.16
2022-11-16T05:00:55.720Z,99748.78
2022-11-16T05:03:22.601Z,99743.72
2022-11-16T05:05:51.135Z,99753.88
2022-11-16T05:08:18.060Z,99753.19
2022-11-16T05:10:50.671Z,99756.91
2022-11-16T05:13:17.320Z,99756.41
2022-11-16T05:15:49.244Z,99760.44
2022-11-16T05:18:15.985Z,99769.56
2022-11-16T05:21:00.725Z,99766.13
2022-11-16T05:23:49.116Z,99762.59
2022-11-16T05:26:18.817Z,99762.44
2022-11-16T05:28:45.824Z,99766.84
2022-11-16T05:31:13.049Z,99764.31
2022-11-16T05:33:40.184Z,99769.84
2022-11-16T05:36:08.003Z,99770.88
2022-11-16T05:38:34.697Z,99770.88
2022-11-16T05:41:03.887Z,99770.34
2022-11-16T05:43:30.588Z,99765.13
2022-11-16T05:46:18.928Z,99766.97
2022-11-16T05:48:45.766Z,99764.44
2022-11-16T05:51:12.755Z,99761.91
2022-11-16T05:53:39.272Z,99759.53
2022-11-16T05:56:07.814Z,99766.28
2022-11-16T05:58:37.996Z,99758.66
2022-11-16T06:01:05.304Z,99768.97
2022-11-16T06:03:32.650Z,99753.22
2022-11-16T06:06:05.061Z,99760.16
2022-11-16T06:08:31.850Z,99771.63
2022-11-16T06:11:04.696Z,99774.81
2022-11-16T06:13:33.168Z,99779.56
2022-11-16T06:16:02.790Z,99789.00
2022-11-16T06:18:31.341Z,99785.78
2022-11-16T06:20:58.295Z,99789.66
2022-11-16T06:23:25.376Z,99791.16
2022-11-16T06:25:56.419Z,99794.34
2022-11-16T06:28:26.243Z,99796.66
2022-11-16T06:30:54.076Z,99803.41
2022-11-16T06:33:22.481Z,99802.19
2022-11-16T06:35:53.854Z,99804.53
2022-11-16T06:38:24.401Z,99803.31
2022-11-16T06:40:55.323Z,99812.91
2022-11-16T06:43:24.753Z,99815.72
2022-11-16T06:45:58.365Z,99818.97
2022-11-16T06:48:25.145Z,99822.41
2022-11-16T06:50:52.959Z,99823.63
2022-11-16T06:53:27.588Z,99832.19
2022-11-16T06:56:05.274Z,99836.66
2022-11-16T06:58:36.770Z,99839.81
2022-11-16T07:01:09.002Z,99837.28
2022-11-16T07:03:38.472Z,99843.16
2022-11-16T07:06:08.997Z,99841.91
2022-11-16T07:08:36.847Z,99848.47
2022-11-16T07:11:08.161Z,99847.06
2022-11-16T07:13:35.991Z,99843.69
2022-11-16T07:16:10.541Z,99849.53
2022-11-16T07:18:41.939Z,99848.84
2022-11-16T07:21:12.649Z,99846.13
2022-11-16T07:23:39.967Z,99847.84
2022-11-16T07:26:11.921Z,99857.63
2022-11-16T07:28:48.187Z,99864.72
2022-11-16T07:31:18.541Z,99866.25
2022-11-16T07:33:45.949Z,99862.19
2022-11-16T07:36:38.401Z,99859.94
2022-11-16T07:39:06.842Z,99871.19
2022-11-16T07:41:33.329Z,99871.34
2022-11-16T07:44:12.360Z,99874.19
2022-11-16T07:46:47.645Z,99874.19
2022-11-16T07:49:17.963Z,99886.06
2022-11-16T07:51:56.626Z,99884.31
2022-11-16T07:54:39.951Z,99879.84
2022-11-16T07:57:08.288Z,99891.56
2022-11-16T07:59:35.016Z,99893.66
2022-11-16T08:02:03.745Z,99897.75
2022-11-16T08:04:33.681Z,99906.69
2022-11-16T08:07:00.343Z,99901.13
2022-11-16T08:09:31.973Z,99903.84
2022-11-16T08:11:58.540Z,99907.38
2022-11-16T08:14:26.404Z,99896.28
2022-11-16T08:16:55.825Z,99911.31
2022-11-16T08:19:22.743Z,99907.47
2022-11-16T08:21:49.320Z,99909.16
2022-11-16T08:24:21.134Z,99910.41
2022-11-16T08:26:47.636Z,99909.97
2022-11-16T08:29:15.810Z,99909.66
2022-11-16T08:31:47.544Z,99907.50
2022-11-16T08:34:22.089Z,99905.16
2022-11-16T08:36:51.765Z,99900.00
2022-11-16T08:39:24.149Z,99911.88
2022-11-16T08:41:51.088Z,99909.56
2022-11-16T08:44:33.575Z,99915.03
2022-11-16T08:47:05.465Z,99923.06
2022-11-16T08:49:52.200Z,99916.69
2022-11-16T08:52:20.519Z,99921.00
2022-11-16T08:54:50.382Z,99920.94
2022-11-16T08:57:17.346Z,99926.06
2022-11-16T08:59:46.235Z,99926.97
2022-11-16T09:02:13.928Z,99933.78
2022-11-16T09:04:43.880Z,99931.81
2022-11-16T09:07:10.488Z,99939.28
2022-11-16T09:09:36.964Z,99935.91
2022-11-16T09:12:03.625Z,99936.28
2022-11-16T09:14:33.042Z,99932.94
2022-11-16T09:16:59.738Z,99931.31
2022-11-16T09:19:26.462Z,99929.81
2022-11-16T09:21:52.916Z,99936.25
2022-11-16T09:24:23.345Z,99928.31
2022-11-16T09:26:49.844Z,99933.25
2022-11-16T09:29:16.359Z,99938.50
2022-11-16T09:31:43.987Z,99936.13
2022-11-16T09:34:10.577Z,99939.72
2022-11-16T09:36:38.147Z,99929.91
2022-11-16T09:42:21.306Z,99943.81
2022-11-16T09:45:19.944Z,99949.41
2022-11-16T09:47:59.385Z,99944.50
2022-11-16T09:50:47.059Z,99951.13
2022-11-16T09:53:39.608Z,99957.41
2022-11-16T09:56:29.145Z,99952.31
2022-11-16T09:59:21.435Z,99952.66
2022-11-16T10:01:57.234Z,99950.28
2022-11-16T10:04:43.923Z,99947.44
2022-11-16T10:07:25.725Z,99951.84
2022-11-16T10:09:52.484Z,99952.16
2022-11-16T10:12:28.178Z,99946.91
2022-11-16T10:15:23.556Z,99955.88
2022-11-16T10:18:07.543Z,99954.38
2022-11-16T10:20:46.581Z,99949.81
2022-11-16T10:23:22.686Z,99953.72
2022-11-16T10:26:19.710Z,99951.66
2022-11-16T10:29:05.049Z,99951.31
2022-11-16T10:31:57.697Z,99955.06
2022-11-16T10:34:34.560Z,99951.84
2022-11-16T10:37:03.856Z,99953.88
2022-11-16T10:39:32.190Z,99950.97
2022-11-16T10:42:07.292Z,99951.66
2022-11-16T10:45:22.550Z,99947.75
2022-11-16T10:47:57.035Z,99948.59
2022-11-16T10:50:39.308Z,99943.84
2022-11-16T10:53:06.392Z,99944.00
2022-11-16T10:55:32.973Z,99939.75
2022-11-16T10:58:02.146Z,99937.19
2022-11-16T11:00:57.907Z,99938.53
2022-11-16T11:03:31.434Z,99937.16
2022-11-16T11:05:58.637Z,99927.78
2022-11-16T11:08:30.956Z,99935.03
2022-11-16T11:11:01.630Z,99924.00
2022-11-16T11:13:28.196Z,99921.41
2022-11-16T11:16:17.531Z,99921.91
2022-11-16T11:18:44.224Z,99917.81
2022-11-16T11:21:20.888Z,99921.91
2022-11-16T11:23:53.156Z,99919.56
2022-11-16T11:26:36.294Z,99921.94
2022-11-16T11:29:16.400Z,99919.91
2022-11-16T11:31:50.065Z,99921.28
2022-11-16T11:34:42.846Z,99923.88
2022-11-16T11:37:38.285Z,99912.88
2022-11-16T11:40:27.757Z,99913.41
2022-11-16T11:43:01.485Z,99912.91
2022-11-16T11:45:45.285Z,99909.16
2022-11-16T11:48:40.914Z,99903.72
2022-11-16T11:51:10.356Z,99895.78
2022-11-16T11:53:52.095Z,99902.22
2022-11-16T11:56:19.339Z,99903.25
2022-11-16T11:58:47.930Z,99907.31
2022-11-16T12:01:39.068Z,99893.97
2022-11-16T12:04:49.941Z,99892.66
2022-11-16T12:07:25.353Z,99896.53
2022-11-16T12:10:03.946Z,99889.75
2022-11-16T12:12:56.411Z,99885.69
2022-11-16T12:15:31.143Z,99886.88
2022-11-16T12:18:18.017Z,99881.63
2022-11-16T12:20:56.474Z,99874.88
2022-11-16T12:23:50.172Z,99878.94
2022-11-16T12:26:20.256Z,99879.28
2022-11-16T12:29:00.877Z,99867.09
2022-11-16T12:31:39.105Z,99864.22
2022-11-16T12:34:38.536Z,99866.75
2022-11-16T12:37:11.161Z,99864.53
2022-11-16T12:39:51.499Z,99865.88
2022-11-16T12:42:37.356Z,99859.44
2022-11-16T12:45:37.638Z,99856.56
2022-11-16T12:48:37.880Z,99849.59
2022-11-16T12:51:25.308Z,99850.59
2022-11-16T12:54:13.740Z,99841.06
2022-11-16T12:57:15.509Z,99828.97
2022-11-16T13:00:00.659Z,99828.59
2022-11-16T13:02:36.013Z,99830.94
2022-11-16T13:05:26.234Z,99831.59
2022-11-16T13:08:02.349Z,99828.53
2022-11-16T13:10:43.055Z,99818.88
2022-11-16T13:13:35.900Z,99824.31
2022-11-16T13:16:29.263Z,99818.41
2022-11-16T13:18:57.151Z,99814.00
2022-11-16T13:21:47.675Z,99801.13
2022-11-16T13:24:42.953Z,99797.75
2022-11-16T13:27:37.679Z,99799.78
2022-11-16T13:30:24.619Z,99812.69
2022-11-16T13:33:28.905Z,99806.25
2022-11-16T13:35:56.674Z,99813.53
2022-11-16T13:38:52.425Z,99813.38
2022-11-16T13:41:35.324Z,99810.47
2022-11-16T13:44:03.259Z,99807.94
2022-11-16T13:46:55.836Z,99807.44
2022-11-16T13:49:33.079Z,99809.31
2022-11-16T13:52:22.123Z,99802.19
2022-11-16T13:54:54.359Z,99803.94
2022-11-16T13:57:27.775Z,99799.69
2022-11-16T14:00:21.332Z,99798.84
2022-11-16T14:02:47.866Z,99791.22
2022-11-16T14:05:39.157Z,99799.00
2022-11-16T14:08:24.365Z,99783.88
2022-11-16T14:10:50.781Z,99792.00
2022-11-16T14:13:36.407Z,99789.00
2022-11-16T14:16:14.947Z,99785.97
2022-11-16T14:18:42.629Z,99783.78
2022-11-16T14:21:20.595Z,99787.88
2022-11-16T14:24:12.708Z,99785.66
2022-11-16T14:27:07.054Z,99783.13
2022-11-16T14:29:48.714Z,99781.91
2022-11-16T14:32:42.526Z,99773.78
2022-11-16T14:35:28.274Z,99776.16
2022-11-16T14:38:07.669Z,99778.19
2022-11-16T14:40:58.917Z,99771.06
2022-11-16T14:43:40.606Z,99756.16
2022-11-16T14:46:29.738Z,99755.00
2022-11-16T14:49:00.967Z,99761.28
2022-11-16T14:51:33.850Z,99756.03
2022-11-16T14:54:41.386Z,99754.19
2022-11-16T14:57:17.673Z,99751.34
2022-11-16T14:59:44.211Z,99751.19
2022-11-16T15:02:21.192Z,99748.53
2022-11-16T15:04:53.065Z,99745.47
2022-11-16T15:07:23.108Z,99753.28
2022-11-16T15:09:53.506Z,99743.97
2022-11-16T15:12:43.003Z,99735.88
2022-11-16T15:15:10.282Z,99721.63
2022-11-16T15:17:41.286Z,99723.53
2022-11-16T15:20:29.247Z,99730.66
2022-11-16T15:22:58.950Z,99723.72
2022-11-16T15:25:40.362Z,99715.94
2022-11-16T15:28:30.210Z,99720.66
2022-11-16T15:31:04.487Z,99716.63
2022-11-16T15:33:36.366Z,99718.81
2022-11-16T15:36:22.324Z,99719.50
2022-11-16T15:38:51.602Z,99711.72
2022-11-16T15:41:18.905Z,99688.88
2022-11-16T15:44:12.388Z,99686.69
2022-11-16T15:46:40.575Z,99678.56
2022-11-16T15:49:26.121Z,99691.28
2022-11-16T15:51:52.657Z,99707.19
2022-11-16T15:54:27.285Z,99697.97
2022-11-16T15:56:57.036Z,99695.25
2022-11-16T15:59:34.205Z,99687.81
2022-11-16T16:02:00.794Z,99685.28
2022-11-16T16:04:31.610Z,99687.47
2022-11-16T16:07:00.044Z,99689.69
2022-11-16T16:09:38.711Z,99677.50
2022-11-16T16:12:24.342Z,99670.56
2022-11-16T16:15:21.156Z,99673.59
2022-11-16T16:17:47.688Z,99663.47
2022-11-16T16:20:20.148Z,99661.59
2022-11-16T16:22:46.817Z,99656.19
2022-11-16T16:25:30.992Z,99649.09
2022-11-16T16:27:58.338Z,99645.38
2022-11-16T16:30:25.411Z,99647.06
2022-11-16T16:32:52.011Z,99652.31
2022-11-16T16:35:24.765Z,99641.16
2022-11-16T16:37:57.243Z,99649.78
2022-11-16T16:40:23.824Z,99637.09
2022-11-16T16:42:50.936Z,99632.53
2022-11-16T16:45:24.497Z,99636.94
2022-11-16T16:47:51.072Z,99636.09
2022-11-16T16:50:17.781Z,99629.81
2022-11-16T16:52:44.370Z,99628.13
2022-11-16T16:55:11.044Z,99635.56
2022-11-16T16:57:37.527Z,99634.56
2022-11-16T17:00:04.458Z,99623.75
2022-11-16T17:02:31.080Z,99625.59
2022-11-16T17:05:00.058Z,99620.19
2022-11-16T17:07:26.617Z,99619.50
2022-11-16T17:09:53.187Z,99616.97
2022-11-16T17:12:19.679Z,99610.22
2022-11-16T17:14:51.776Z,99606.00
2022-11-16T17:17:19.424Z,99599.91
2022-11-16T17:19:46.692Z,99595.69
2022-11-16T17:22:14.752Z,99596.03
2022-11-16T17:24:43.025Z,99600.06
2022-11-16T17:27:09.628Z,99596.00
2022-11-16T17:29:41.138Z,99593.13
2022-11-16T17:32:07.868Z,99599.72
2022-11-16T17:34:38.032Z,99595.84
2022-11-16T17:37:04.638Z,99600.72
2022-11-16T17:39:31.089Z,99589.38
2022-11-16T17:41:57.617Z,99583.47
2022-11-16T17:44:28.173Z,99585.66
2022-11-16T17:46:54.692Z,99591.56
2022-11-16T17:49:21.160Z,99585.47
2022-11-16T17:51:47.717Z,99575.31
2022-11-16T17:54:14.394Z,99564.16
2022-11-16T17:56:40.866Z,99564.50
2022-11-16T17:59:07.370Z,99565.69
2022-11-16T18:01:33.974Z,99565.00
2022-11-16T18:04:01.458Z,99571.56
2022-11-16T18:06:28.250Z,99569.22
2022-11-16T18:08:54.864Z,99579.34
2022-11-16T18:11:26.484Z,99575.91
2022-11-16T18:13:55.319Z,99569.84
2022-11-16T18:16:24.433Z,99570.84
2022-11-16T18:18:57.894Z,99565.78
2022-11-16T18:21:24.583Z,99570.50
2022-11-16T18:23:51.424Z,99570.81
2022-11-16T18:26:21.699Z,99570.31
2022-11-16T18:28:49.461Z,99572.47
2022-11-16T18:31:20.813Z,99569.09
2022-11-16T18:33:49.389Z,99570.28
2022-11-16T18:36:17.492Z,99560.66
2022-11-16T18:38:44.225Z,99569.75
2022-11-16T18:41:13.907Z,99563.13
2022-11-16T18:43:42.002Z,99563.59
2022-11-16T18:46:08.704Z,99557.69
2022-11-16T18:48:35.161Z,99559.88
2022-11-16T18:51:03.240Z,99564.25
2022-11-16T18:53:31.709Z,99565.94
2022-11-16T18:55:59.341Z,99555.00
2022-11-16T19:01:18.157Z,99550.28
2022-11-16T19:03:44.714Z,99546.56
2022-11-16T19:06:14.844Z,99539.31
2022-11-16T19:08:42.166Z,99539.31
2022-11-16T19:11:11.943Z,99538.47
2022-11-16T19:13:42.508Z,99523.13
2022-11-16T19:16:11.941Z,99514.16
2022-11-16T19:18:39.151Z,99509.78
2022-11-16T19:21:16.229Z,99510.94
2022-11-16T19:23:44.997Z,99498.47
2022-11-16T19:26:14.834Z,99500.16
2022-11-16T19:28:46.768Z,99494.06
2022-11-16T19:31:18.860Z,99490.53
2022-11-16T19:33:46.345Z,99485.28
2022-11-16T19:36:18.237Z,99472.97
2022-11-16T19:38:46.523Z,99479.22
2022-11-16T19:41:14.908Z,99465.88
2022-11-16T19:43:41.995Z,99463.34
2022-11-16T19:46:16.352Z,99454.25
2022-11-16T19:48:43.976Z,99454.25
2022-11-16T19:51:18.839Z,99448.00
2022-11-16T19:53:45.518Z,99443.63
2022-11-16T19:56:15.503Z,99432.66
2022-11-16T19:58:42.754Z,99421.84
2022-11-16T20:01:15.098Z,99421.00
2022-11-16T20:03:42.166Z,99418.16
2022-11-16T20:06:15.141Z,99408.38
2022-11-16T20:08:46.094Z,99403.97
2022-11-16T20:11:15.341Z,99405.84
2022-11-16T20:13:42.902Z,99398.56
2022-11-16T20:16:11.844Z,99394.88
2022-11-16T20:18:39.241Z,99392.00
2022-11-16T20:21:06.981Z,99382.91
2022-11-16T20:23:34.616Z,99384.59
2022-11-16T20:26:05.538Z,99375.47
2022-11-16T20:28:41.029Z,99363.84
2022-11-16T20:31:10.452Z,99363.66
2022-11-16T20:33:37.315Z,99352.19
2022-11-16T20:36:08.028Z,99360.81
2022-11-16T20:38:35.908Z,99364.34
2022-11-16T20:41:12.428Z,99354.22
2022-11-16T20:43:41.517Z,99350.53
2022-11-16T20:46:11.138Z,99349.50
2022-11-16T20:48:38.920Z,99344.63
2022-11-16T20:51:06.113Z,99348.16
2022-11-16T20:53:33.653Z,99349.84
2022-11-16T20:56:03.268Z,99338.03
2022-11-16T20:58:30.934Z,99338.88
2022-11-16T21:01:10.511Z,99329.78
2022-11-16T21:03:37.516Z,99332.47
2022-11-16T21:06:14.060Z,99323.38
2022-11-16T21:08:41.651Z,99318.66
2022-11-16T21:11:12.976Z,99314.09
2022-11-16T21:13:58.700Z,99312.25
2022-11-16T21:16:25.317Z,99304.16
2022-11-16T21:18:53.889Z,99304.16
2022-11-16T21:21:20.419Z,99287.28
2022-11-16T21:23:51.599Z,99285.44
2022-11-16T21:26:24.885Z,99278.00
2022-11-16T21:28:51.960Z,99269.72
2022-11-16T21:31:25.635Z,99268.03
2022-11-16T21:33:52.673Z,99261.63
2022-11-16T21:36:21.471Z,99255.22
2022-11-16T21:38:48.669Z,99242.56
2022-11-16T21:41:16.455Z,99244.25
2022-11-16T21:43:44.040Z,99248.63
2022-11-16T21:46:18.869Z,99244.91
2022-11-16T21:48:47.114Z,99235.81
2022-11-16T21:51:16.532Z,99229.56
2022-11-16T21:53:43.442Z,99223.13
2022-11-16T21:56:18.343Z,99217.91
2022-11-16T21:58:45.548Z,99224.16
2022-11-16T22:01:13.749Z,99220.44
2022-11-16T22:03:40.318Z,99209.66
2022-11-16T22:06:29.413Z,99211.31
2022-11-16T22:08:55.979Z,99205.75
2022-11-16T22:11:22.563Z,99202.72
2022-11-16T22:13:49.950Z,99198.16
2022-11-16T22:16:20.869Z,99184.66
2022-11-16T22:18:47.448Z,99180.94
2022-11-16T22:21:13.918Z,99173.66
2022-11-16T22:23:40.798Z,99168.09
2022-11-16T22:26:12.436Z,99157.28
2022-11-16T22:28:39.393Z,99142.09
2022-11-16T22:31:15.176Z,99143.13
2022-11-16T22:33:42.233Z,99130.47
2022-11-16T22:36:13.242Z,99108.88
2022-11-16T22:38:39.871Z,99102.63
2022-11-16T22:41:06.490Z,99097.22
2022-11-16T22:43:33.487Z,99090.13
2022-11-16T22:46:02.367Z,99078.50
2022-11-16T22:48:37.184Z,99073.09
2022-11-16T22:51:19.086Z,99073.09
2022-11-16T22:53:45.877Z,99062.47
2022-11-16T22:56:12.933Z,99058.25
2022-11-16T22:58:40.047Z,99053.03
2022-11-16T23:01:08.556Z,99038.69
2022-11-16T23:03:36.077Z,99032.63
2022-11-16T23:06:05.733Z,99029.94
2022-11-16T23:08:32.794Z,99020.16
2022-11-16T23:11:30.596Z,99026.38
2022-11-16T23:14:15.475Z,98999.38
2022-11-16T23:16:46.521Z,98988.78
2022-11-16T23:19:33.965Z,98987.28
2022-11-16T23:22:19.584Z,98979.16
2022-11-16T23:25:04.897Z,98966.50
2022-11-16T23:27:55.572Z,98953.00
2022-11-16T23:30:23.001Z,98942.22
2022-11-16T23:32:49.948Z,98937.66
2022-11-16T23:35:18.115Z,98934.78
2022-11-16T23:37:56.233Z,98919.25
2022-11-16T23:40:25.445Z,98907.59
2022-11-16T23:43:12.143Z,98901.19
2022-11-16T23:45:39.912Z,98895.78
2022-11-16T23:48:07.855Z,98875.69
2022-11-16T23:50:34.916Z,98874.84
2022-11-16T23:53:01.545Z,98863.19
2022-11-16T23:55:38.307Z,98855.94
2022-11-16T23:58:05.658Z,98852.22
